^^
Saratoga-Weather Station Historical Data
Daily Summary for October 23, 2021 Units:  Both    English   Metric
Daily Weekly Monthly Yearly Custom
  High: Low: Average:
Temperature: 55.2 °F /  12.9 °C 40.5 °F /  4.7 °C 47.3 °F /  8.5 °C
Dew Point: 48.4 °F /  9.1 °C 39.2 °F /  4 °C 44.2 °F /  6.8 °C
Humidity: 96% 72% 89%
Wind Speed: 8.1mph /  13km/h - 0.6mph /  1km/h
Wind Gust: 11mph /  17.7km/h - -
Wind- - South
Pressure: 30.4 in /  1028.1 hPa 30.3 in /  1024.4 hPa -
Precipitation: 0 in /  0.0 mm    
Historical Graphs
 
 
Tabular Data for October 23, 2021
Time Temperature Dew Point Pressure Wind Wind Speed Wind Gust Humidity Rainfall Rate (Hourly) solar
00:04 48.4 °F /  9.1 °C 45.3 °F /  7.4 °C 30.3in /  1024.4hPa WNW 2.9mph /  4.7km/h 5mph /  8km/h 89% 0in /  0.0mm 0 W/m2
00:09 48.4 °F /  9.1 °C 45 °F /  7.2 °C 30.3in /  1024.4hPa WNW 4.9mph /  7.9km/h 10mph /  16.1km/h 88% 0in /  0.0mm 0 W/m2
00:14 48.4 °F /  9.1 °C 45 °F /  7.2 °C 30.3in /  1024.7hPa West 2.9mph /  4.7km/h 7mph /  11.3km/h 88% 0in /  0.0mm 0 W/m2
00:19 48.4 °F /  9.1 °C 45.3 °F /  7.4 °C 30.3in /  1024.7hPa WNW 2.9mph /  4.7km/h 10mph /  16.1km/h 89% 0in /  0.0mm 0 W/m2
00:24 48.4 °F /  9.1 °C 45.3 °F /  7.4 °C 30.3in /  1024.7hPa West 2mph /  3.2km/h 8mph /  12.9km/h 89% 0in /  0.0mm 0 W/m2
00:29 48.4 °F /  9.1 °C 45.3 °F /  7.4 °C 30.3in /  1024.7hPa West 6.9mph /  11.1km/h 11mph /  17.7km/h 89% 0in /  0.0mm 0 W/m2
00:34 48.4 °F /  9.1 °C 45 °F /  7.2 °C 30.3in /  1024.7hPa WNW 2.9mph /  4.7km/h 6mph /  9.7km/h 88% 0in /  0.0mm 0 W/m2
00:39 48.4 °F /  9.1 °C 45 °F /  7.2 °C 30.3in /  1024.7hPa WNW 4.9mph /  7.9km/h 11mph /  17.7km/h 88% 0in /  0.0mm 0 W/m2
00:44 48.4 °F /  9.1 °C 45 °F /  7.2 °C 30.3in /  1024.7hPa West 4mph /  6.4km/h 8mph /  12.9km/h 88% 0in /  0.0mm 0 W/m2
00:49 48.4 °F /  9.1 °C 45 °F /  7.2 °C 30.3in /  1025.1hPa WSW 6.9mph /  11.1km/h 7mph /  11.3km/h 88% 0in /  0.0mm 0 W/m2
00:54 48.4 °F /  9.1 °C 45 °F /  7.2 °C 30.3in /  1024.7hPa West 4mph /  6.4km/h 11mph /  17.7km/h 88% 0in /  0.0mm 0 W/m2
00:59 48.4 °F /  9.1 °C 45 °F /  7.2 °C 30.3in /  1024.7hPa WNW 4mph /  6.4km/h 8mph /  12.9km/h 88% 0in /  0.0mm 0 W/m2
01:04 48.2 °F /  9 °C 44.8 °F /  7.1 °C 30.3in /  1024.7hPa West 2.9mph /  4.7km/h 11mph /  17.7km/h 88% 0in /  0.0mm 0 W/m2
01:09 48.2 °F /  9 °C 44.8 °F /  7.1 °C 30.3in /  1024.7hPa WNW 4.9mph /  7.9km/h 10mph /  16.1km/h 88% 0in /  0.0mm 0 W/m2
01:14 48 °F /  8.9 °C 44.6 °F /  7 °C 30.3in /  1024.7hPa WNW 2.9mph /  4.7km/h 8mph /  12.9km/h 88% 0in /  0.0mm 0 W/m2
01:19 48 °F /  8.9 °C 44.6 °F /  7 °C 30.3in /  1024.7hPa West 4mph /  6.4km/h 10mph /  16.1km/h 88% 0in /  0.0mm 0 W/m2
01:24 47.8 °F /  8.8 °C 44.8 °F /  7.1 °C 30.3in /  1025.1hPa SW 2mph /  3.2km/h 7mph /  11.3km/h 89% 0in /  0.0mm 0 W/m2
01:29 47.8 °F /  8.8 °C 44.8 °F /  7.1 °C 30.3in /  1025.1hPa West 6.9mph /  11.1km/h 7mph /  11.3km/h 89% 0in /  0.0mm 0 W/m2
01:34 47.8 °F /  8.8 °C 44.8 °F /  7.1 °C 30.3in /  1025.1hPa West 4mph /  6.4km/h 10mph /  16.1km/h 89% 0in /  0.0mm 0 W/m2
01:39 47.8 °F /  8.8 °C 44.8 °F /  7.1 °C 30.3in /  1025.1hPa WSW 6.9mph /  11.1km/h 7mph /  11.3km/h 89% 0in /  0.0mm 0 W/m2
01:44 47.8 °F /  8.8 °C 44.8 °F /  7.1 °C 30.3in /  1025.1hPa WNW 4mph /  6.4km/h 9mph /  14.5km/h 89% 0in /  0.0mm 0 W/m2
01:49 47.8 °F /  8.8 °C 44.8 °F /  7.1 °C 30.3in /  1025.1hPa West 8.1mph /  13km/h 8mph /  12.9km/h 89% 0in /  0.0mm 0 W/m2
01:54 47.8 °F /  8.8 °C 44.8 °F /  7.1 °C 30.3in /  1025.1hPa West 0.9mph /  1.4km/h 7mph /  11.3km/h 89% 0in /  0.0mm 0 W/m2
01:59 48 °F /  8.9 °C 45 °F /  7.2 °C 30.3in /  1025.1hPa West 2.9mph /  4.7km/h 8mph /  12.9km/h 89% 0in /  0.0mm 0 W/m2
02:04 48 °F /  8.9 °C 45 °F /  7.2 °C 30.3in /  1025.1hPa WNW 2mph /  3.2km/h 8mph /  12.9km/h 89% 0in /  0.0mm 0 W/m2
02:09 47.8 °F /  8.8 °C 44.8 °F /  7.1 °C 30.3in /  1025.1hPa West 2mph /  3.2km/h 8mph /  12.9km/h 89% 0in /  0.0mm 0 W/m2
02:14 47.8 °F /  8.8 °C 44.8 °F /  7.1 °C 30.3in /  1025.1hPa West 6.9mph /  11.1km/h 7mph /  11.3km/h 89% 0in /  0.0mm 0 W/m2
02:19 47.8 °F /  8.8 °C 44.8 °F /  7.1 °C 30.3in /  1025.1hPa SW 4.9mph /  7.9km/h 8mph /  12.9km/h 89% 0in /  0.0mm 0 W/m2
02:24 47.8 °F /  8.8 °C 44.8 °F /  7.1 °C 30.3in /  1025.1hPa WNW 4mph /  6.4km/h 9mph /  14.5km/h 89% 0in /  0.0mm 0 W/m2
02:29 47.8 °F /  8.8 °C 44.8 °F /  7.1 °C 30.3in /  1025.1hPa NW 2mph /  3.2km/h 3mph /  4.8km/h 89% 0in /  0.0mm 0 W/m2
02:34 47.8 °F /  8.8 °C 44.8 °F /  7.1 °C 30.3in /  1025.1hPa WNW 0.9mph /  1.4km/h 3mph /  4.8km/h 89% 0in /  0.0mm 0 W/m2
02:39 47.8 °F /  8.8 °C 44.8 °F /  7.1 °C 30.3in /  1025.1hPa WNW 2.9mph /  4.7km/h 4mph /  6.4km/h 89% 0in /  0.0mm 0 W/m2
02:44 47.8 °F /  8.8 °C 44.8 °F /  7.1 °C 30.3in /  1025.1hPa Calm   1mph /  1.6km/h 89% 0in /  0.0mm 0 W/m2
02:49 47.8 °F /  8.8 °C 44.8 °F /  7.1 °C 30.3in /  1025.4hPa ESE 2.9mph /  4.7km/h 4mph /  6.4km/h 89% 0in /  0.0mm 0 W/m2
02:54 47.7 °F /  8.7 °C 44.6 °F /  7 °C 30.3in /  1025.4hPa East 0.9mph /  1.4km/h 2mph /  3.2km/h 89% 0in /  0.0mm 0 W/m2
02:59 47.5 °F /  8.6 °C 44.4 °F /  6.9 °C 30.3in /  1025.4hPa Calm   1mph /  1.6km/h 89% 0in /  0.0mm 0 W/m2
03:04 47.5 °F /  8.6 °C 44.8 °F /  7.1 °C 30.3in /  1025.4hPa Calm     90% 0in /  0.0mm 0 W/m2
03:09 47.1 °F /  8.4 °C 44.4 °F /  6.9 °C 30.3in /  1025.7hPa Calm     90% 0in /  0.0mm 0 W/m2
03:14 46.9 °F /  8.3 °C 44.2 °F /  6.8 °C 30.3in /  1025.7hPa Calm     90% 0in /  0.0mm 0 W/m2
03:19 46.8 °F /  8.2 °C 44.2 °F /  6.8 °C 30.3in /  1025.7hPa Calm     91% 0in /  0.0mm 0 W/m2
03:24 46.8 °F /  8.2 °C 44.2 °F /  6.8 °C 30.3in /  1025.7hPa Calm     91% 0in /  0.0mm 0 W/m2
03:29 46.6 °F /  8.1 °C 44.1 °F /  6.7 °C 30.3in /  1025.7hPa Calm     91% 0in /  0.0mm 0 W/m2
03:34 46.6 °F /  8.1 °C 44.4 °F /  6.9 °C 30.3in /  1025.7hPa East 0.9mph /  1.4km/h 1mph /  1.6km/h 92% 0in /  0.0mm 0 W/m2
03:39 46.6 °F /  8.1 °C 44.4 °F /  6.9 °C 30.3in /  1025.7hPa Calm     92% 0in /  0.0mm 0 W/m2
03:44 46.6 °F /  8.1 °C 44.4 °F /  6.9 °C 30.3in /  1025.7hPa Calm   2mph /  3.2km/h 92% 0in /  0.0mm 0 W/m2
03:49 46.6 °F /  8.1 °C 44.4 °F /  6.9 °C 30.3in /  1025.7hPa North 0.9mph /  1.4km/h 2mph /  3.2km/h 92% 0in /  0.0mm 0 W/m2
03:54 46.8 °F /  8.2 °C 44.6 °F /  7 °C 30.3in /  1025.7hPa NNE 2mph /  3.2km/h 2mph /  3.2km/h 92% 0in /  0.0mm 0 W/m2
03:59 46.8 °F /  8.2 °C 44.6 °F /  7 °C 30.3in /  1025.7hPa Calm     92% 0in /  0.0mm 0 W/m2
04:04 46.8 °F /  8.2 °C 44.6 °F /  7 °C 30.3in /  1025.7hPa NNE 2mph /  3.2km/h 2mph /  3.2km/h 92% 0in /  0.0mm 0 W/m2
04:09 46.6 °F /  8.1 °C 44.4 °F /  6.9 °C 30.3in /  1025.7hPa Calm     92% 0in /  0.0mm 0 W/m2
04:14 46.6 °F /  8.1 °C 44.4 °F /  6.9 °C 30.3in /  1025.7hPa NW 0.9mph /  1.4km/h 1mph /  1.6km/h 92% 0in /  0.0mm 0 W/m2
04:19 46.6 °F /  8.1 °C 44.4 °F /  6.9 °C 30.3in /  1025.7hPa Calm     92% 0in /  0.0mm 0 W/m2
04:24 46.4 °F /  8 °C 44.2 °F /  6.8 °C 30.3in /  1025.7hPa Calm     92% 0in /  0.0mm 0 W/m2
04:29 46.2 °F /  7.9 °C 44.1 °F /  6.7 °C 30.3in /  1025.7hPa Calm     92% 0in /  0.0mm 0 W/m2
04:34 46.2 °F /  7.9 °C 44.2 °F /  6.8 °C 30.3in /  1025.7hPa Calm     93% 0in /  0.0mm 0 W/m2
04:39 46.2 °F /  7.9 °C 44.2 °F /  6.8 °C 30.3in /  1025.7hPa Calm     93% 0in /  0.0mm 0 W/m2
04:44 46 °F /  7.8 °C 44.1 °F /  6.7 °C 30.3in /  1025.7hPa Calm     93% 0in /  0.0mm 0 W/m2
04:49 46 °F /  7.8 °C 44.1 °F /  6.7 °C 30.3in /  1025.7hPa Calm     93% 0in /  0.0mm 0 W/m2
04:54 46 °F /  7.8 °C 44.1 °F /  6.7 °C 30.3in /  1025.7hPa Calm     93% 0in /  0.0mm 0 W/m2
04:59 46 °F /  7.8 °C 44.1 °F /  6.7 °C 30.3in /  1025.7hPa Calm     93% 0in /  0.0mm 0 W/m2
05:04 46 °F /  7.8 °C 44.1 °F /  6.7 °C 30.3in /  1025.4hPa Calm     93% 0in /  0.0mm 0 W/m2
05:09 45.9 °F /  7.7 °C 43.9 °F /  6.6 °C 30.3in /  1025.7hPa Calm     93% 0in /  0.0mm 0 W/m2
05:14 45.9 °F /  7.7 °C 43.9 °F /  6.6 °C 30.3in /  1025.4hPa Calm     93% 0in /  0.0mm 0 W/m2
05:19 45.9 °F /  7.7 °C 43.9 °F /  6.6 °C 30.3in /  1025.4hPa Calm   1mph /  1.6km/h 93% 0in /  0.0mm 0 W/m2
05:24 45.7 °F /  7.6 °C 43.7 °F /  6.5 °C 30.3in /  1025.7hPa Calm     93% 0in /  0.0mm 0 W/m2
05:29 45.7 °F /  7.6 °C 43.7 °F /  6.5 °C 30.3in /  1025.7hPa Calm     93% 0in /  0.0mm 0 W/m2
05:34 45.7 °F /  7.6 °C 43.7 °F /  6.5 °C 30.3in /  1025.7hPa Calm     93% 0in /  0.0mm 0 W/m2
05:39 45.5 °F /  7.5 °C 43.5 °F /  6.4 °C 30.3in /  1025.7hPa Calm     93% 0in /  0.0mm 0 W/m2
05:44 45.3 °F /  7.4 °C 43.7 °F /  6.5 °C 30.3in /  1025.7hPa Calm     94% 0in /  0.0mm 0 W/m2
05:49 45.3 °F /  7.4 °C 43.7 °F /  6.5 °C 30.3in /  1025.7hPa Calm     94% 0in /  0.0mm 0 W/m2
05:54 45.3 °F /  7.4 °C 43.7 °F /  6.5 °C 30.3in /  1025.4hPa Calm     94% 0in /  0.0mm 0 W/m2
05:59 45.3 °F /  7.4 °C 43.7 °F /  6.5 °C 30.3in /  1025.4hPa Calm     94% 0in /  0.0mm 0 W/m2
06:04 45.1 °F /  7.3 °C 43.5 °F /  6.4 °C 30.3in /  1025.4hPa Calm     94% 0in /  0.0mm 0 W/m2
06:09 45.1 °F /  7.3 °C 43.5 °F /  6.4 °C 30.3in /  1025.4hPa Calm     94% 0in /  0.0mm 0 W/m2
06:14 45 °F /  7.2 °C 43.3 °F /  6.3 °C 30.3in /  1025.4hPa Calm     94% 0in /  0.0mm 0 W/m2
06:19 44.8 °F /  7.1 °C 43.2 °F /  6.2 °C 30.3in /  1025.4hPa Calm     94% 0in /  0.0mm 0 W/m2
06:24 44.4 °F /  6.9 °C 42.8 °F /  6 °C 30.3in /  1025.4hPa Calm     94% 0in /  0.0mm 0 W/m2
06:29 44.2 °F /  6.8 °C 42.3 °F /  5.7 °C 30.3in /  1025.4hPa Calm     93% 0in /  0.0mm 0 W/m2
06:34 43.9 °F /  6.6 °C 42.3 °F /  5.7 °C 30.3in /  1025.4hPa Calm     94% 0in /  0.0mm 0 W/m2
06:40 43.5 °F /  6.4 °C 41.7 °F /  5.4 °C 30.3in /  1025.4hPa Calm     93% 0in /  0.0mm 0 W/m2
06:45 43.3 °F /  6.3 °C 41.7 °F /  5.4 °C 30.3in /  1025.4hPa Calm     94% 0in /  0.0mm 0 W/m2
06:50 43.2 °F /  6.2 °C 41.5 °F /  5.3 °C 30.3in /  1025.4hPa Calm     94% 0in /  0.0mm 0 W/m2
06:55 43 °F /  6.1 °C 41.4 °F /  5.2 °C 30.3in /  1025.7hPa Calm     94% 0in /  0.0mm 0 W/m2
07:00 42.8 °F /  6 °C 41.2 °F /  5.1 °C 30.3in /  1025.7hPa Calm     94% 0in /  0.0mm 0 W/m2
07:05 42.6 °F /  5.9 °C 41 °F /  5 °C 30.3in /  1025.7hPa Calm     94% 0in /  0.0mm 0 W/m2
07:10 42.6 °F /  5.9 °C 41 °F /  5 °C 30.3in /  1025.7hPa Calm     94% 0in /  0.0mm 0 W/m2
07:15 42.4 °F /  5.8 °C 40.8 °F /  4.9 °C 30.3in /  1026.1hPa Calm     94% 0in /  0.0mm 0 W/m2
07:20 42.4 °F /  5.8 °C 40.8 °F /  4.9 °C 30.3in /  1026.1hPa Calm     94% 0in /  0.0mm 0 W/m2
07:25 42.4 °F /  5.8 °C 40.8 °F /  4.9 °C 30.3in /  1026.1hPa Calm     94% 0in /  0.0mm 0 W/m2
07:30 42.4 °F /  5.8 °C 41.2 °F /  5.1 °C 30.3in /  1026.1hPa Calm     95% 0in /  0.0mm 0 W/m2
07:35 42.4 °F /  5.8 °C 41.2 °F /  5.1 °C 30.3in /  1026.1hPa Calm     95% 0in /  0.0mm 0 W/m2
07:40 42.4 °F /  5.8 °C 41.2 °F /  5.1 °C 30.3in /  1026.1hPa Calm     95% 0in /  0.0mm 0 W/m2
07:45 42.4 °F /  5.8 °C 41.2 °F /  5.1 °C 30.3in /  1026.1hPa Calm     95% 0in /  0.0mm 0 W/m2
07:50 42.4 °F /  5.8 °C 41.2 °F /  5.1 °C 30.3in /  1026.1hPa Calm     95% 0in /  0.0mm 0 W/m2
07:55 42.4 °F /  5.8 °C 41.2 °F /  5.1 °C 30.3in /  1026.1hPa Calm     95% 0in /  0.0mm 0 W/m2
08:00 42.4 °F /  5.8 °C 41.2 °F /  5.1 °C 30.3in /  1026.1hPa Calm     95% 0in /  0.0mm 0 W/m2
08:05 42.4 °F /  5.8 °C 41.2 °F /  5.1 °C 30.3in /  1026.4hPa Calm     95% 0in /  0.0mm 0 W/m2
08:10 42.6 °F /  5.9 °C 41.4 °F /  5.2 °C 30.3in /  1026.4hPa Calm     95% 0in /  0.0mm 0 W/m2
08:15 42.6 °F /  5.9 °C 41.4 °F /  5.2 °C 30.3in /  1026.4hPa Calm     95% 0in /  0.0mm 0 W/m2
08:20 42.6 °F /  5.9 °C 41.4 °F /  5.2 °C 30.3in /  1026.4hPa Calm     95% 0in /  0.0mm 5 W/m2
08:25 42.8 °F /  6 °C 41.5 °F /  5.3 °C 30.3in /  1026.4hPa Calm     95% 0in /  0.0mm 9 W/m2
08:30 43 °F /  6.1 °C 41.7 °F /  5.4 °C 30.3in /  1026.4hPa Calm     95% 0in /  0.0mm 12 W/m2
08:35 43 °F /  6.1 °C 41.9 °F /  5.5 °C 30.3in /  1026.8hPa Calm     96% 0in /  0.0mm 14 W/m2
08:40 43 °F /  6.1 °C 41.9 °F /  5.5 °C 30.3in /  1026.4hPa Calm     96% 0in /  0.0mm 18 W/m2
08:45 43.2 °F /  6.2 °C 42.1 °F /  5.6 °C 30.3in /  1026.8hPa Calm     96% 0in /  0.0mm 23 W/m2
08:50 43.3 °F /  6.3 °C 42.3 °F /  5.7 °C 30.3in /  1026.8hPa Calm     96% 0in /  0.0mm 26 W/m2
08:55 43.3 °F /  6.3 °C 42.3 °F /  5.7 °C 30.3in /  1026.8hPa Calm     96% 0in /  0.0mm 32 W/m2
09:01 43.5 °F /  6.4 °C 42.4 °F /  5.8 °C 30.3in /  1026.8hPa Calm     96% 0in /  0.0mm 35 W/m2
09:06 43.7 °F /  6.5 °C 42.6 °F /  5.9 °C 30.3in /  1026.8hPa Calm     96% 0in /  0.0mm 40 W/m2
09:11 43.9 °F /  6.6 °C 42.8 °F /  6 °C 30.3in /  1026.8hPa Calm   2mph /  3.2km/h 96% 0in /  0.0mm 42 W/m2
09:16 44.1 °F /  6.7 °C 43 °F /  6.1 °C 30.3in /  1027.1hPa Calm     96% 0in /  0.0mm 47 W/m2
09:21 44.1 °F /  6.7 °C 43 °F /  6.1 °C 30.3in /  1027.1hPa Calm   2mph /  3.2km/h 96% 0in /  0.0mm 51 W/m2
09:26 44.2 °F /  6.8 °C 43.2 °F /  6.2 °C 30.3in /  1027.1hPa Calm     96% 0in /  0.0mm 56 W/m2
09:31 44.2 °F /  6.8 °C 43.2 °F /  6.2 °C 30.3in /  1027.1hPa Calm     96% 0in /  0.0mm 63 W/m2
09:36 44.4 °F /  6.9 °C 43.3 °F /  6.3 °C 30.3in /  1027.1hPa Calm     96% 0in /  0.0mm 70 W/m2
09:41 44.6 °F /  7 °C 43.5 °F /  6.4 °C 30.3in /  1027.1hPa Calm     96% 0in /  0.0mm 76 W/m2
09:46 44.8 °F /  7.1 °C 43.7 °F /  6.5 °C 30.3in /  1027.1hPa Calm     96% 0in /  0.0mm 84 W/m2
09:51 45 °F /  7.2 °C 43.9 °F /  6.6 °C 30.3in /  1027.1hPa Calm     96% 0in /  0.0mm 90 W/m2
09:56 45.1 °F /  7.3 °C 44.1 °F /  6.7 °C 30.3in /  1027.4hPa Calm     96% 0in /  0.0mm 91 W/m2
10:01 45.3 °F /  7.4 °C 44.2 °F /  6.8 °C 30.3in /  1027.4hPa Calm     96% 0in /  0.0mm 91 W/m2
10:06 45.7 °F /  7.6 °C 44.6 °F /  7 °C 30.3in /  1027.4hPa Calm     96% 0in /  0.0mm 93 W/m2
10:11 45.9 °F /  7.7 °C 44.8 °F /  7.1 °C 30.3in /  1027.4hPa Calm     96% 0in /  0.0mm 90 W/m2
10:16 46 °F /  7.8 °C 45 °F /  7.2 °C 30.3in /  1027.4hPa Calm     96% 0in /  0.0mm 91 W/m2
10:21 46 °F /  7.8 °C 45 °F /  7.2 °C 30.3in /  1027.4hPa Calm     96% 0in /  0.0mm 95 W/m2
10:26 46.4 °F /  8 °C 45.3 °F /  7.4 °C 30.3in /  1027.4hPa Calm     96% 0in /  0.0mm 97 W/m2
10:31 46.6 °F /  8.1 °C 45.5 °F /  7.5 °C 30.3in /  1027.4hPa West 0.9mph /  1.4km/h 2mph /  3.2km/h 96% 0in /  0.0mm 100 W/m2
10:36 46.8 °F /  8.2 °C 45.7 °F /  7.6 °C 30.4in /  1027.8hPa Calm     96% 0in /  0.0mm 97 W/m2
10:41 46.9 °F /  8.3 °C 45.9 °F /  7.7 °C 30.4in /  1027.8hPa Calm     96% 0in /  0.0mm 100 W/m2
10:46 47.1 °F /  8.4 °C 45.7 °F /  7.6 °C 30.4in /  1027.8hPa Calm     95% 0in /  0.0mm 104 W/m2
10:51 47.3 °F /  8.5 °C 45.9 °F /  7.7 °C 30.4in /  1027.8hPa Calm     95% 0in /  0.0mm 113 W/m2
10:56 47.5 °F /  8.6 °C 46 °F /  7.8 °C 30.4in /  1027.8hPa Calm     95% 0in /  0.0mm 114 W/m2
11:01 47.7 °F /  8.7 °C 46.2 °F /  7.9 °C 30.4in /  1027.8hPa Calm     95% 0in /  0.0mm 118 W/m2
11:06 48 °F /  8.9 °C 46.6 °F /  8.1 °C 30.4in /  1027.8hPa Calm     95% 0in /  0.0mm 120 W/m2
11:11 48.4 °F /  9.1 °C 46.8 °F /  8.2 °C 30.4in /  1027.8hPa Calm     94% 0in /  0.0mm 125 W/m2
11:16 48.6 °F /  9.2 °C 46.9 °F /  8.3 °C 30.4in /  1027.8hPa Calm     94% 0in /  0.0mm 123 W/m2
11:21 48.7 °F /  9.3 °C 46.8 °F /  8.2 °C 30.4in /  1027.8hPa NE 0.9mph /  1.4km/h 2mph /  3.2km/h 93% 0in /  0.0mm 132 W/m2
11:26 48.9 °F /  9.4 °C 46.9 °F /  8.3 °C 30.4in /  1027.8hPa ENE 2mph /  3.2km/h 2mph /  3.2km/h 93% 0in /  0.0mm 137 W/m2
11:31 49.3 °F /  9.6 °C 47.3 °F /  8.5 °C 30.4in /  1027.8hPa ENE 2mph /  3.2km/h 2mph /  3.2km/h 93% 0in /  0.0mm 146 W/m2
11:36 49.5 °F /  9.7 °C 47.3 °F /  8.5 °C 30.4in /  1028.1hPa ESE 2mph /  3.2km/h 2mph /  3.2km/h 92% 0in /  0.0mm 153 W/m2
11:41 49.5 °F /  9.7 °C 47.3 °F /  8.5 °C 30.4in /  1028.1hPa Calm   3mph /  4.8km/h 92% 0in /  0.0mm 163 W/m2
11:46 49.6 °F /  9.8 °C 47.1 °F /  8.4 °C 30.4in /  1028.1hPa NE 0.9mph /  1.4km/h 3mph /  4.8km/h 91% 0in /  0.0mm 158 W/m2
11:51 49.8 °F /  9.9 °C 47.3 °F /  8.5 °C 30.4in /  1028.1hPa NE 2mph /  3.2km/h 3mph /  4.8km/h 91% 0in /  0.0mm 171 W/m2
11:56 50 °F /  10 °C 47.5 °F /  8.6 °C 30.4in /  1028.1hPa Calm   2mph /  3.2km/h 91% 0in /  0.0mm 171 W/m2
12:01 50.2 °F /  10.1 °C 47.3 °F /  8.5 °C 30.4in /  1028.1hPa Calm   3mph /  4.8km/h 90% 0in /  0.0mm 176 W/m2
12:06 50.4 °F /  10.2 °C 47.5 °F /  8.6 °C 30.4in /  1028.1hPa ENE 0.9mph /  1.4km/h 2mph /  3.2km/h 90% 0in /  0.0mm 176 W/m2
12:11 50.5 °F /  10.3 °C 47.5 °F /  8.6 °C 30.4in /  1028.1hPa Calm   1mph /  1.6km/h 89% 0in /  0.0mm 181 W/m2
12:16 50.7 °F /  10.4 °C 47.7 °F /  8.7 °C 30.4in /  1028.1hPa Calm   2mph /  3.2km/h 89% 0in /  0.0mm 186 W/m2
12:21 50.9 °F /  10.5 °C 47.8 °F /  8.8 °C 30.4in /  1028.1hPa Calm     89% 0in /  0.0mm 202 W/m2
12:26 51.1 °F /  10.6 °C 47.7 °F /  8.7 °C 30.4in /  1028.1hPa Calm   2mph /  3.2km/h 88% 0in /  0.0mm 214 W/m2
12:31 51.3 °F /  10.7 °C 47.8 °F /  8.8 °C 30.4in /  1028.1hPa Calm   1mph /  1.6km/h 88% 0in /  0.0mm 211 W/m2
12:36 51.4 °F /  10.8 °C 48 °F /  8.9 °C 30.4in /  1028.1hPa ENE 0.9mph /  1.4km/h 2mph /  3.2km/h 88% 0in /  0.0mm 214 W/m2
12:41 51.6 °F /  10.9 °C 47.8 °F /  8.8 °C 30.4in /  1028.1hPa Calm   2mph /  3.2km/h 87% 0in /  0.0mm 230 W/m2
12:46 51.6 °F /  10.9 °C 47.8 °F /  8.8 °C 30.4in /  1028.1hPa NE 0.9mph /  1.4km/h 1mph /  1.6km/h 87% 0in /  0.0mm 225 W/m2
12:51 51.8 °F /  11 °C 47.7 °F /  8.7 °C 30.4in /  1028.1hPa Calm     86% 0in /  0.0mm 216 W/m2
12:56 52.2 °F /  11.2 °C 48.4 °F /  9.1 °C 30.4in /  1027.8hPa Calm   2mph /  3.2km/h 87% 0in /  0.0mm 232 W/m2
13:01 52.2 °F /  11.2 °C 48 °F /  8.9 °C 30.4in /  1028.1hPa Calm     86% 0in /  0.0mm 207 W/m2
13:06 52.3 °F /  11.3 °C 48.2 °F /  9 °C 30.4in /  1027.8hPa NE 0.9mph /  1.4km/h 2mph /  3.2km/h 86% 0in /  0.0mm 209 W/m2
13:11 52.5 °F /  11.4 °C 48.2 °F /  9 °C 30.4in /  1027.8hPa North 2mph /  3.2km/h 2mph /  3.2km/h 85% 0in /  0.0mm 246 W/m2
13:17 52.5 °F /  11.4 °C 48.2 °F /  9 °C 30.4in /  1027.8hPa ENE 2mph /  3.2km/h 2mph /  3.2km/h 85% 0in /  0.0mm 258 W/m2
13:22 52.9 °F /  11.6 °C 48.2 °F /  9 °C 30.4in /  1027.8hPa Calm   2mph /  3.2km/h 84% 0in /  0.0mm 241 W/m2
13:27 53.1 °F /  11.7 °C 48.4 °F /  9.1 °C 30.4in /  1027.8hPa NE 0.9mph /  1.4km/h 2mph /  3.2km/h 84% 0in /  0.0mm 230 W/m2
13:32 53.2 °F /  11.8 °C 48.2 °F /  9 °C 30.4in /  1027.8hPa East 0.9mph /  1.4km/h 1mph /  1.6km/h 83% 0in /  0.0mm 234 W/m2
13:37 53.4 °F /  11.9 °C 48 °F /  8.9 °C 30.4in /  1027.8hPa Calm   1mph /  1.6km/h 82% 0in /  0.0mm 211 W/m2
13:42 53.6 °F /  12 °C 47.8 °F /  8.8 °C 30.4in /  1027.8hPa Calm   1mph /  1.6km/h 81% 0in /  0.0mm 220 W/m2
13:47 53.8 °F /  12.1 °C 47.8 °F /  8.8 °C 30.4in /  1027.8hPa Calm   2mph /  3.2km/h 80% 0in /  0.0mm 229 W/m2
13:52 53.8 °F /  12.1 °C 47.8 °F /  8.8 °C 30.3in /  1027.4hPa North 0.9mph /  1.4km/h 3mph /  4.8km/h 80% 0in /  0.0mm 225 W/m2
13:57 54 °F /  12.2 °C 47.7 °F /  8.7 °C 30.3in /  1027.4hPa Calm   2mph /  3.2km/h 79% 0in /  0.0mm 216 W/m2
14:02 54 °F /  12.2 °C 47.3 °F /  8.5 °C 30.3in /  1027.4hPa Calm   3mph /  4.8km/h 78% 0in /  0.0mm 251 W/m2
14:07 54.1 °F /  12.3 °C 47.8 °F /  8.8 °C 30.3in /  1027.4hPa NNE 0.9mph /  1.4km/h 2mph /  3.2km/h 79% 0in /  0.0mm 221 W/m2
14:12 54.3 °F /  12.4 °C 47.7 °F /  8.7 °C 30.3in /  1027.4hPa East 0.9mph /  1.4km/h 2mph /  3.2km/h 78% 0in /  0.0mm 234 W/m2
14:17 54.7 °F /  12.6 °C 48 °F /  8.9 °C 30.3in /  1027.4hPa Calm   4mph /  6.4km/h 78% 0in /  0.0mm 239 W/m2
14:22 54.9 °F /  12.7 °C 47.8 °F /  8.8 °C 30.3in /  1027.4hPa Calm   3mph /  4.8km/h 77% 0in /  0.0mm 192 W/m2
14:27 55 °F /  12.8 °C 47.7 °F /  8.7 °C 30.3in /  1027.4hPa NE 0.9mph /  1.4km/h 2mph /  3.2km/h 76% 0in /  0.0mm 128 W/m2
14:32 55 °F /  12.8 °C 47.3 °F /  8.5 °C 30.3in /  1027.4hPa NE 0.9mph /  1.4km/h 2mph /  3.2km/h 75% 0in /  0.0mm 137 W/m2
14:37 54.9 °F /  12.7 °C 46.8 °F /  8.2 °C 30.3in /  1027.4hPa Calm   1mph /  1.6km/h 74% 0in /  0.0mm 176 W/m2
14:42 54.9 °F /  12.7 °C 47.1 °F /  8.4 °C 30.3in /  1027.4hPa Calm   1mph /  1.6km/h 75% 0in /  0.0mm 190 W/m2
14:47 54.9 °F /  12.7 °C 47.1 °F /  8.4 °C 30.3in /  1027.4hPa Calm     75% 0in /  0.0mm 174 W/m2
14:52 55 °F /  12.8 °C 47.3 °F /  8.5 °C 30.3in /  1027.4hPa Calm   2mph /  3.2km/h 75% 0in /  0.0mm 181 W/m2
14:57 55 °F /  12.8 °C 47.3 °F /  8.5 °C 30.3in /  1027.4hPa East 2mph /  3.2km/h 4mph /  6.4km/h 75% 0in /  0.0mm 172 W/m2
15:02 55 °F /  12.8 °C 46.9 °F /  8.3 °C 30.3in /  1027.4hPa Calm   1mph /  1.6km/h 74% 0in /  0.0mm 167 W/m2
15:07 55 °F /  12.8 °C 46.9 °F /  8.3 °C 30.3in /  1027.4hPa Calm   4mph /  6.4km/h 74% 0in /  0.0mm 139 W/m2
15:12 55.2 °F /  12.9 °C 47.1 °F /  8.4 °C 30.3in /  1027.4hPa ENE 0.9mph /  1.4km/h 2mph /  3.2km/h 74% 0in /  0.0mm 105 W/m2
15:17 55.2 °F /  12.9 °C 47.1 °F /  8.4 °C 30.3in /  1027.4hPa Calm   2mph /  3.2km/h 74% 0in /  0.0mm 86 W/m2
15:22 55.2 °F /  12.9 °C 46.4 °F /  8 °C 30.3in /  1027.4hPa North 2mph /  3.2km/h 2mph /  3.2km/h 72% 0in /  0.0mm 90 W/m2
15:27 55 °F /  12.8 °C 46.9 °F /  8.3 °C 30.3in /  1027.4hPa Calm   3mph /  4.8km/h 74% 0in /  0.0mm 81 W/m2
15:32 55 °F /  12.8 °C 47.3 °F /  8.5 °C 30.3in /  1027.4hPa Calm   2mph /  3.2km/h 75% 0in /  0.0mm 83 W/m2
15:37 55 °F /  12.8 °C 47.3 °F /  8.5 °C 30.3in /  1027.4hPa NNE 0.9mph /  1.4km/h 2mph /  3.2km/h 75% 0in /  0.0mm 88 W/m2
15:42 54.9 °F /  12.7 °C 47.5 °F /  8.6 °C 30.3in /  1027.4hPa Calm   1mph /  1.6km/h 76% 0in /  0.0mm 90 W/m2
15:47 54.9 °F /  12.7 °C 47.8 °F /  8.8 °C 30.3in /  1027.4hPa Calm     77% 0in /  0.0mm 91 W/m2
15:52 54.9 °F /  12.7 °C 47.5 °F /  8.6 °C 30.3in /  1027.4hPa East 0.9mph /  1.4km/h 3mph /  4.8km/h 76% 0in /  0.0mm 90 W/m2
15:57 54.7 °F /  12.6 °C 47.7 °F /  8.7 °C 30.3in /  1027.4hPa Calm     77% 0in /  0.0mm 91 W/m2
16:02 54.7 °F /  12.6 °C 47.7 °F /  8.7 °C 30.3in /  1027.4hPa ENE 0.9mph /  1.4km/h 1mph /  1.6km/h 77% 0in /  0.0mm 95 W/m2
16:07 54.7 °F /  12.6 °C 47.3 °F /  8.5 °C 30.3in /  1027.4hPa NNE 0.9mph /  1.4km/h 5mph /  8km/h 76% 0in /  0.0mm 98 W/m2
16:12 54.5 °F /  12.5 °C 47.1 °F /  8.4 °C 30.3in /  1027.4hPa Calm   2mph /  3.2km/h 76% 0in /  0.0mm 107 W/m2
16:17 54.3 °F /  12.4 °C 46.9 °F /  8.3 °C 30.3in /  1027.4hPa Calm   5mph /  8km/h 76% 0in /  0.0mm 97 W/m2
16:22 54.3 °F /  12.4 °C 47.3 °F /  8.5 °C 30.3in /  1027.4hPa Calm   3mph /  4.8km/h 77% 0in /  0.0mm 76 W/m2
16:27 54.3 °F /  12.4 °C 47.3 °F /  8.5 °C 30.3in /  1027.4hPa NE 2mph /  3.2km/h 3mph /  4.8km/h 77% 0in /  0.0mm 62 W/m2
16:32 54.1 °F /  12.3 °C 47.1 °F /  8.4 °C 30.3in /  1027.1hPa Calm   2mph /  3.2km/h 77% 0in /  0.0mm 44 W/m2
16:37 54 °F /  12.2 °C 46.9 °F /  8.3 °C 30.3in /  1027.1hPa East 0.9mph /  1.4km/h 3mph /  4.8km/h 77% 0in /  0.0mm 35 W/m2
16:42 53.6 °F /  12 °C 46.6 °F /  8.1 °C 30.3in /  1027.1hPa Calm   1mph /  1.6km/h 77% 0in /  0.0mm 33 W/m2
16:47 53.4 °F /  11.9 °C 46.8 °F /  8.2 °C 30.3in /  1027.1hPa Calm   3mph /  4.8km/h 78% 0in /  0.0mm 33 W/m2
16:52 53.1 °F /  11.7 °C 46.4 °F /  8 °C 30.3in /  1027.1hPa East 0.9mph /  1.4km/h 1mph /  1.6km/h 78% 0in /  0.0mm 37 W/m2
16:57 52.9 °F /  11.6 °C 46.2 °F /  7.9 °C 30.3in /  1027.1hPa Calm   2mph /  3.2km/h 78% 0in /  0.0mm 42 W/m2
17:02 52.9 °F /  11.6 °C 46.2 °F /  7.9 °C 30.3in /  1027.1hPa Calm   1mph /  1.6km/h 78% 0in /  0.0mm 51 W/m2
17:07 52.7 °F /  11.5 °C 46.8 °F /  8.2 °C 30.3in /  1027.1hPa Calm     80% 0in /  0.0mm 54 W/m2
17:12 52.5 °F /  11.4 °C 46.9 °F /  8.3 °C 30.3in /  1027.1hPa Calm   2mph /  3.2km/h 81% 0in /  0.0mm 44 W/m2
17:17 52.3 °F /  11.3 °C 46.9 °F /  8.3 °C 30.3in /  1027.1hPa Calm   2mph /  3.2km/h 82% 0in /  0.0mm 33 W/m2
17:22 52.2 °F /  11.2 °C 47.1 °F /  8.4 °C 30.3in /  1027.1hPa SE 2mph /  3.2km/h 2mph /  3.2km/h 83% 0in /  0.0mm 37 W/m2
17:27 51.8 °F /  11 °C 46.8 °F /  8.2 °C 30.3in /  1027.1hPa Calm     83% 0in /  0.0mm 47 W/m2
17:32 51.4 °F /  10.8 °C 46.8 °F /  8.2 °C 30.3in /  1027.1hPa Calm   2mph /  3.2km/h 84% 0in /  0.0mm 63 W/m2
17:37 51.4 °F /  10.8 °C 46.8 °F /  8.2 °C 30.3in /  1027.1hPa Calm     84% 0in /  0.0mm 60 W/m2
17:42 51.3 °F /  10.7 °C 46.6 °F /  8.1 °C 30.3in /  1027.1hPa Calm     84% 0in /  0.0mm 53 W/m2
17:47 51.4 °F /  10.8 °C 46.8 °F /  8.2 °C 30.3in /  1026.8hPa Calm     84% 0in /  0.0mm 44 W/m2
17:52 51.4 °F /  10.8 °C 46.8 °F /  8.2 °C 30.3in /  1026.8hPa Calm     84% 0in /  0.0mm 35 W/m2
17:57 51.4 °F /  10.8 °C 46.8 °F /  8.2 °C 30.3in /  1026.8hPa Calm     84% 0in /  0.0mm 25 W/m2
18:02 51.3 °F /  10.7 °C 46.6 °F /  8.1 °C 30.3in /  1026.8hPa Calm     84% 0in /  0.0mm 18 W/m2
18:07 51.1 °F /  10.6 °C 46.8 °F /  8.2 °C 30.3in /  1026.8hPa Calm     85% 0in /  0.0mm 14 W/m2
18:12 50.5 °F /  10.3 °C 46.2 °F /  7.9 °C 30.3in /  1026.8hPa Calm     85% 0in /  0.0mm 12 W/m2
18:17 50.2 °F /  10.1 °C 45.9 °F /  7.7 °C 30.3in /  1026.8hPa Calm     85% 0in /  0.0mm 9 W/m2
18:22 49.8 °F /  9.9 °C 45.9 °F /  7.7 °C 30.3in /  1026.8hPa Calm     86% 0in /  0.0mm 7 W/m2
18:27 49.5 °F /  9.7 °C 45.5 °F /  7.5 °C 30.3in /  1026.8hPa Calm     86% 0in /  0.0mm 5 W/m2
18:32 48.9 °F /  9.4 °C 45 °F /  7.2 °C 30.3in /  1026.8hPa Calm     86% 0in /  0.0mm 0 W/m2
18:37 48.6 °F /  9.2 °C 44.8 °F /  7.1 °C 30.3in /  1026.8hPa Calm     87% 0in /  0.0mm 0 W/m2
18:42 48.2 °F /  9 °C 44.6 °F /  7 °C 30.3in /  1026.8hPa Calm     87% 0in /  0.0mm 0 W/m2
18:47 47.8 °F /  8.8 °C 44.4 °F /  6.9 °C 30.3in /  1026.8hPa Calm     88% 0in /  0.0mm 0 W/m2
18:52 47.7 °F /  8.7 °C 44.2 °F /  6.8 °C 30.3in /  1026.8hPa Calm     88% 0in /  0.0mm 0 W/m2
18:57 47.5 °F /  8.6 °C 44.1 °F /  6.7 °C 30.3in /  1026.8hPa Calm     88% 0in /  0.0mm 0 W/m2
19:02 47.1 °F /  8.4 °C 44.1 °F /  6.7 °C 30.3in /  1026.8hPa Calm     89% 0in /  0.0mm 0 W/m2
19:07 46.8 °F /  8.2 °C 43.7 °F /  6.5 °C 30.3in /  1026.8hPa Calm     89% 0in /  0.0mm 0 W/m2
19:12 46.6 °F /  8.1 °C 43.5 °F /  6.4 °C 30.3in /  1027.1hPa Calm     89% 0in /  0.0mm 0 W/m2
19:17 46.2 °F /  7.9 °C 43.2 °F /  6.2 °C 30.3in /  1027.1hPa Calm     89% 0in /  0.0mm 0 W/m2
19:22 46 °F /  7.8 °C 43.3 °F /  6.3 °C 30.3in /  1027.1hPa Calm     90% 0in /  0.0mm 0 W/m2
19:27 45.9 °F /  7.7 °C 43.2 °F /  6.2 °C 30.3in /  1027.1hPa Calm     90% 0in /  0.0mm 0 W/m2
19:32 45.7 °F /  7.6 °C 43.2 °F /  6.2 °C 30.3in /  1027.1hPa Calm     91% 0in /  0.0mm 0 W/m2
19:37 45.7 °F /  7.6 °C 43.2 °F /  6.2 °C 30.3in /  1027.1hPa Calm     91% 0in /  0.0mm 0 W/m2
19:42 45.3 °F /  7.4 °C 42.8 °F /  6 °C 30.3in /  1027.1hPa Calm     91% 0in /  0.0mm 0 W/m2
19:47 45.3 °F /  7.4 °C 42.8 °F /  6 °C 30.3in /  1027.1hPa Calm     91% 0in /  0.0mm 0 W/m2
19:52 45.1 °F /  7.3 °C 42.6 °F /  5.9 °C 30.3in /  1027.4hPa Calm     91% 0in /  0.0mm 0 W/m2
19:57 45 °F /  7.2 °C 42.4 °F /  5.8 °C 30.3in /  1027.4hPa Calm     91% 0in /  0.0mm 0 W/m2
20:02 44.6 °F /  7 °C 42.1 °F /  5.6 °C 30.3in /  1027.1hPa Calm     91% 0in /  0.0mm 0 W/m2
20:07 44.4 °F /  6.9 °C 42.3 °F /  5.7 °C 30.3in /  1027.1hPa Calm     92% 0in /  0.0mm 0 W/m2
20:12 44.2 °F /  6.8 °C 42.1 °F /  5.6 °C 30.3in /  1027.1hPa Calm     92% 0in /  0.0mm 0 W/m2
20:17 44.1 °F /  6.7 °C 41.9 °F /  5.5 °C 30.3in /  1027.1hPa Calm     92% 0in /  0.0mm 0 W/m2
20:22 44.1 °F /  6.7 °C 41.9 °F /  5.5 °C 30.3in /  1027.1hPa Calm     92% 0in /  0.0mm 0 W/m2
20:27 43.9 °F /  6.6 °C 41.7 °F /  5.4 °C 30.3in /  1027.1hPa Calm     92% 0in /  0.0mm 0 W/m2
20:32 43.7 °F /  6.5 °C 41.7 °F /  5.4 °C 30.3in /  1027.1hPa Calm     93% 0in /  0.0mm 0 W/m2
20:37 43.5 °F /  6.4 °C 41.7 °F /  5.4 °C 30.3in /  1027.1hPa Calm     93% 0in /  0.0mm 0 W/m2
20:42 43.5 °F /  6.4 °C 41.7 °F /  5.4 °C 30.3in /  1027.1hPa Calm     93% 0in /  0.0mm 0 W/m2
20:47 43.3 °F /  6.3 °C 41.5 °F /  5.3 °C 30.3in /  1027.1hPa Calm     93% 0in /  0.0mm 0 W/m2
20:52 43.2 °F /  6.2 °C 41.4 °F /  5.2 °C 30.3in /  1027.1hPa Calm     93% 0in /  0.0mm 0 W/m2
20:57 43 °F /  6.1 °C 41.2 °F /  5.1 °C 30.3in /  1027.1hPa Calm     93% 0in /  0.0mm 0 W/m2
21:02 42.8 °F /  6 °C 41 °F /  5 °C 30.3in /  1027.1hPa Calm     93% 0in /  0.0mm 0 W/m2
21:07 42.6 °F /  5.9 °C 40.8 °F /  4.9 °C 30.3in /  1027.1hPa Calm     93% 0in /  0.0mm 0 W/m2
21:12 42.4 °F /  5.8 °C 40.6 °F /  4.8 °C 30.3in /  1026.8hPa Calm     93% 0in /  0.0mm 0 W/m2
21:17 42.4 °F /  5.8 °C 40.8 °F /  4.9 °C 30.3in /  1026.8hPa Calm     94% 0in /  0.0mm 0 W/m2
21:22 42.3 °F /  5.7 °C 40.6 °F /  4.8 °C 30.3in /  1026.8hPa Calm     94% 0in /  0.0mm 0 W/m2
21:27 42.3 °F /  5.7 °C 40.6 °F /  4.8 °C 30.3in /  1027.1hPa Calm     94% 0in /  0.0mm 0 W/m2
21:32 42.1 °F /  5.6 °C 40.5 °F /  4.7 °C 30.3in /  1026.8hPa Calm     94% 0in /  0.0mm 0 W/m2
21:37 42.1 °F /  5.6 °C 40.5 °F /  4.7 °C 30.3in /  1026.8hPa Calm     94% 0in /  0.0mm 0 W/m2
21:43 41.7 °F /  5.4 °C 40.1 °F /  4.5 °C 30.3in /  1027.1hPa Calm     94% 0in /  0.0mm 0 W/m2
21:48 41.5 °F /  5.3 °C 39.9 °F /  4.4 °C 30.3in /  1027.1hPa Calm     94% 0in /  0.0mm 0 W/m2
21:53 41.5 °F /  5.3 °C 39.9 °F /  4.4 °C 30.3in /  1027.1hPa Calm     94% 0in /  0.0mm 0 W/m2
21:58 41.4 °F /  5.2 °C 39.7 °F /  4.3 °C 30.3in /  1027.1hPa Calm     94% 0in /  0.0mm 0 W/m2
22:03 41.2 °F /  5.1 °C 39.6 °F /  4.2 °C 30.3in /  1027.1hPa Calm     94% 0in /  0.0mm 0 W/m2
22:08 41.2 °F /  5.1 °C 39.6 °F /  4.2 °C 30.3in /  1027.1hPa Calm     94% 0in /  0.0mm 0 W/m2
22:13 41 °F /  5 °C 39.4 °F /  4.1 °C 30.3in /  1027.1hPa Calm     94% 0in /  0.0mm 0 W/m2
22:18 40.8 °F /  4.9 °C 39.2 °F /  4 °C 30.3in /  1027.1hPa Calm     94% 0in /  0.0mm 0 W/m2
22:23 40.8 °F /  4.9 °C 39.2 °F /  4 °C 30.3in /  1027.1hPa Calm     94% 0in /  0.0mm 0 W/m2
22:28 40.8 °F /  4.9 °C 39.6 °F /  4.2 °C 30.3in /  1027.1hPa Calm     95% 0in /  0.0mm 0 W/m2
22:33 40.6 °F /  4.8 °C 39.4 °F /  4.1 °C 30.3in /  1027.1hPa Calm     95% 0in /  0.0mm 0 W/m2
22:38 40.8 °F /  4.9 °C 39.6 °F /  4.2 °C 30.3in /  1027.1hPa Calm     95% 0in /  0.0mm 0 W/m2
22:43 40.8 °F /  4.9 °C 39.6 °F /  4.2 °C 30.3in /  1027.1hPa Calm     95% 0in /  0.0mm 0 W/m2
22:53 40.8 °F /  4.9 °C 39.6 °F /  4.2 °C 30.3in /  1027.1hPa Calm     95% 0in /  0.0mm 0 W/m2
22:58 40.6 °F /  4.8 °C 39.4 °F /  4.1 °C 30.3in /  1027.1hPa Calm     95% 0in /  0.0mm 0 W/m2
23:03 40.6 °F /  4.8 °C 39.4 °F /  4.1 °C 30.3in /  1027.1hPa Calm     95% 0in /  0.0mm 0 W/m2
23:18 40.5 °F /  4.7 °C 39.2 °F /  4 °C 30.3in /  1027.1hPa Calm     95% 0in /  0.0mm 0 W/m2
23:23 40.5 °F /  4.7 °C 39.2 °F /  4 °C 30.3in /  1027.1hPa Calm     95% 0in /  0.0mm 0 W/m2
23:28 40.5 °F /  4.7 °C 39.2 °F /  4 °C 30.3in /  1027.1hPa Calm     95% 0in /  0.0mm 0 W/m2
23:33 40.5 °F /  4.7 °C 39.2 °F /  4 °C 30.3in /  1027.1hPa Calm     95% 0in /  0.0mm 0 W/m2
23:38 40.6 °F /  4.8 °C 39.4 °F /  4.1 °C 30.3in /  1027.1hPa Calm     95% 0in /  0.0mm 0 W/m2
23:43 40.5 °F /  4.7 °C 39.2 °F /  4 °C 30.3in /  1027.1hPa Calm     95% 0in /  0.0mm 0 W/m2
23:48 40.5 °F /  4.7 °C 39.2 °F /  4 °C 30.3in /  1027.1hPa Calm     95% 0in /  0.0mm 0 W/m2
23:53 40.5 °F /  4.7 °C 39.2 °F /  4 °C 30.3in /  1027.1hPa SE 2mph /  3.2km/h 2mph /  3.2km/h 95% 0in /  0.0mm 0 W/m2
23:58 40.6 °F /  4.8 °C 39.6 °F /  4.2 °C 30.3in /  1027.1hPa Calm   1mph /  1.6km/h 96% 0in /  0.0mm 0 W/m2
Juneau County Weather
Compliments of Weather Underground - 4 mb